aviador You're here:

VNKT Decoded Metar

KATHMANDU in NEPAL
Report Time2014-09-18 14:50:00
UTC Time2014-09-18 15:42:09
Flight Rules vfr VFR
Wind190° at 03 kt
W.Decomp.*RWY 20: 3.0 kt HW 0.5 kt LCW
W.Rank190° ranks 12
Current wind is below 190° avg. (5.3)
Visibility8000 m
Phenomena:thunderstorm
Clouds:Few 020 Hf
Few CB 025 Hf
Scattered 030 Hf
Expected CloudBase > 1,200 ft AGL from Temp-Dew spread
CeilingNone
Temp24°C (ISA +18)
Dew Point21°C (83% RH)
QNH1014 hPa
Density Alt6,739 ft
Elevation4,386 ft
Report Wrong Elevation
Raw Report
METAR VNKT 181450Z 19003KT 8000 TS FEW020 FEW025CB SCT030 24/21 Q1014
NOSIG CB TO NE AND
SE=

Flight School in Barcelona

Extra information for VNKT:More info

Metar Taf Metar & Taf Last 4 Metars F.Rules Stats Wind Profile Meteogram Temp Stats Airport Information Weather charts Add Link Nearby VenuesMetar ALERT Operation Metar Decoded Social comments